Time;durP1;ratioP1;P1;durP2;ratioP2;P2;SDS_P1;SDS_P2;PMS_P1;PMS_P2;Temp;Humidity;BMP_temperature;BMP_pressure;BME280_temperature;BME280_humidity;BME280_pressure;Samples;Min_cycle;Max_cycle;Signal;HPM_P1;HPM_P2
2023/04/08 00:00:15;;;;;;;13.97;10.80;;;4.40;94.90;;;;;;5075445;28;20181;-74
2023/04/08 00:02:41;;;;;;;14.07;11.53;;;4.40;95.00;;;;;;5057340;28;20208;-75
2023/04/08 00:05:10;;;;;;;12.40;10.57;;;4.30;95.40;;;;;;5057404;28;20177;-75
2023/04/08 00:07:36;;;;;;;12.50;11.13;;;4.20;95.80;;;;;;5074975;28;20201;-74
2023/04/08 00:10:02;;;;;;;12.13;10.70;;;4.20;95.90;;;;;;5058508;28;20281;-74
2023/04/08 00:12:31;;;;;;;12.40;10.47;;;4.20;95.60;;;;;;5057404;28;20272;-74
2023/04/08 00:14:56;;;;;;;15.23;10.33;;;4.20;95.50;;;;;;5057613;28;20245;-74
2023/04/08 00:17:22;;;;;;;12.80;10.40;;;4.20;95.50;;;;;;5056973;28;20236;-74
2023/04/08 00:19:48;;;;;;;13.63;10.83;;;4.30;95.60;;;;;;5074858;28;20191;-74
2023/04/08 00:22:13;;;;;;;11.53;10.33;;;4.20;95.80;;;;;;5074870;28;20236;-74
2023/04/08 00:24:39;;;;;;;11.23;10.00;;;4.30;96.00;;;;;;5056945;28;20209;-74
2023/04/08 00:27:05;;;;;;;11.90;10.70;;;4.30;96.00;;;;;;5057326;28;20198;-74
2023/04/08 00:29:31;;;;;;;12.50;10.90;;;4.40;95.90;;;;;;5074662;28;20202;-74
2023/04/08 00:31:56;;;;;;;13.10;10.50;;;4.30;95.80;;;;;;5056932;28;20174;-74
2023/04/08 00:34:22;;;;;;;13.13;10.53;;;4.30;95.80;;;;;;5057144;28;20272;-74
2023/04/08 00:36:48;;;;;;;16.03;11.07;;;4.40;95.70;;;;;;5056869;28;20205;-74
2023/04/08 00:39:14;;;;;;;12.80;10.27;;;4.30;95.40;;;;;;5057089;28;20181;-74
2023/04/08 00:41:40;;;;;;;10.50;9.50;;;4.50;95.60;;;;;;5056545;28;20174;-74
2023/04/08 00:44:05;;;;;;;11.67;9.67;;;4.60;95.10;;;;;;5057493;28;20177;-74
2023/04/08 00:46:38;;;;;;;11.10;9.73;;;4.60;94.90;;;;;;5057161;28;20190;-74
2023/04/08 00:49:06;;;;;;;10.80;9.70;;;4.60;94.90;;;;;;5057358;28;20173;-74
2023/04/08 00:51:35;;;;;;;11.90;10.60;;;4.60;94.60;;;;;;5056473;28;20174;-74
2023/04/08 00:54:03;;;;;;;13.20;10.23;;;4.60;94.80;;;;;;5057306;28;20176;-74
2023/04/08 00:56:31;;;;;;;11.17;9.97;;;4.70;95.00;;;;;;5056258;28;20197;-74
2023/04/08 00:58:58;;;;;;;12.13;9.73;;;4.70;95.30;;;;;;5074221;28;20176;-74
2023/04/08 01:57:32;;;;;;;;;;;;;;;;;;;;;
2023/04/08 06:31:07;;;;;;;;;;;;;;;;;;;;;
2023/04/08 06:42:07;;;;;;;9.90;8.90;;;6.70;99.90;;;;;;5046464;23;20239;-94
2023/04/08 06:44:32;;;;;;;9.90;7.50;;;6.80;99.90;;;;;;4878162;29;20187;-94
2023/04/08 06:46:58;;;;;;;8.88;7.95;;;6.90;99.90;;;;;;4873609;29;20225;-95
2023/04/08 06:49:25;;;;;;;7.63;6.93;;;7.10;99.90;;;;;;4874764;29;20184;-94
2023/04/08 06:51:51;;;;;;;7.35;6.65;;;7.30;99.50;;;;;;4875181;29;20180;-94
2023/04/08 06:54:17;;;;;;;8.00;6.85;;;7.40;99.40;;;;;;4877821;29;20184;-94
2023/04/08 06:56:42;;;;;;;8.15;7.10;;;7.60;98.90;;;;;;4879788;29;20268;-95
2023/04/08 06:59:08;;;;;;;8.02;7.15;;;7.70;98.90;;;;;;4878058;29;20180;-95
2023/04/08 07:01:38;;;;;;;7.75;7.00;;;7.70;98.80;;;;;;4878140;29;20199;-95
2023/04/08 07:04:03;;;;;;;8.18;7.38;;;7.80;98.70;;;;;;4878116;29;20252;-95
2023/04/08 07:06:29;;;;;;;8.93;8.13;;;7.90;98.70;;;;;;4880626;29;20204;-95
2023/04/08 07:08:55;;;;;;;8.15;7.05;;;8.20;99.10;;;;;;4878881;29;20180;-95
2023/04/08 07:11:21;;;;;;;7.20;6.53;;;8.30;98.50;;;;;;4878063;29;20255;-95
2023/04/08 07:13:46;;;;;;;7.32;6.63;;;8.50;97.60;;;;;;4880395;29;20247;-95
2023/04/08 07:16:12;;;;;;;7.68;6.53;;;8.50;97.30;;;;;;4879777;29;20223;-95
2023/04/08 07:18:38;;;;;;;7.97;6.45;;;8.60;97.80;;;;;;4879956;29;20184;-95
2023/04/08 07:21:04;;;;;;;6.60;6.00;;;8.70;97.20;;;;;;4882026;29;20192;-94
2023/04/08 07:23:30;;;;;;;7.03;6.32;;;8.70;97.20;;;;;;4884512;29;20212;-96
2023/04/08 07:26:02;;;;;;;8.57;6.90;;;8.60;97.00;;;;;;4883884;29;20264;-94
2023/04/08 07:28:28;;;;;;;7.25;6.55;;;8.60;97.10;;;;;;4892613;29;20207;-95
2023/04/08 07:31:16;;;;;;;7.28;6.57;;;8.60;97.20;;;;;;4902896;29;20273;-95
2023/04/08 07:33:43;;;;;;;7.35;6.55;;;8.70;97.10;;;;;;4900369;29;20228;-95
2023/04/08 07:36:10;;;;;;;7.25;6.55;;;8.80;97.10;;;;;;4900703;29;20199;-95
2023/04/08 08:37:52;;;;;;;7.03;6.32;;;9.40;97.00;;;;;;5061686;23;20244;-91
2023/04/08 08:40:18;;;;;;;7.32;6.63;;;9.40;96.70;;;;;;4879401;29;20204;-93
2023/04/08 08:42:51;;;;;;;7.00;6.30;;;9.40;97.30;;;;;;4870760;29;20208;-92
2023/04/08 08:45:19;;;;;;;7.32;6.57;;;9.60;96.90;;;;;;4870465;29;20184;-92
2023/04/08 08:47:45;;;;;;;6.95;6.25;;;9.70;97.00;;;;;;4874423;29;20267;-93
2023/04/08 08:50:10;;;;;;;7.28;6.57;;;9.90;96.60;;;;;;4869631;29;20224;-94
2023/04/08 08:52:36;;;;;;;6.25;5.75;;;10.20;96.40;;;;;;4872176;29;20180;-94
2023/04/08 08:55:02;;;;;;;5.63;5.13;;;10.40;96.30;;;;;;4871446;29;20215;-93
2023/04/08 08:57:27;;;;;;;5.97;5.47;;;10.60;95.40;;;;;;4877186;29;20247;-93
2023/04/08 08:59:53;;;;;;;6.18;5.57;;;10.70;95.60;;;;;;4872502;29;20191;-94
2023/04/08 09:02:31;;;;;;;11.38;5.68;;;10.70;95.20;;;;;;4874781;29;20211;-94
2023/04/08 09:04:59;;;;;;;6.65;5.90;;;10.70;95.20;;;;;;4874048;29;20188;-94
2023/04/08 09:07:27;;;;;;;7.25;5.90;;;10.40;95.10;;;;;;4872898;29;20204;-93
2023/04/08 09:09:53;;;;;;;11.07;6.20;;;10.30;95.70;;;;;;4875787;29;20188;-92
2023/04/08 09:12:19;;;;;;;15.23;6.55;;;10.40;95.90;;;;;;4877020;29;20248;-94
2023/04/08 09:14:45;;;;;;;7.28;6.10;;;10.40;96.00;;;;;;4878495;29;20168;-94
2023/04/08 09:17:11;;;;;;;6.90;5.90;;;10.40;95.60;;;;;;4883938;29;20208;-94
2023/04/08 09:19:37;;;;;;;6.50;5.90;;;10.40;95.90;;;;;;4884978;29;20173;-94
2023/04/08 09:22:06;;;;;;;6.18;5.57;;;10.10;96.40;;;;;;4883355;29;20219;-93
2023/04/08 09:24:32;;;;;;;6.60;6.00;;;10.00;96.10;;;;;;4883564;29;20200;-93
2023/04/08 09:26:58;;;;;;;8.05;6.38;;;9.80;96.60;;;;;;4887999;29;20196;-94
2023/04/08 09:29:25;;;;;;;6.32;5.55;;;9.60;97.30;;;;;;4888585;29;20205;-94
2023/04/08 09:32:09;;;;;;;11.10;5.90;;;9.50;97.30;;;;;;4888714;29;20188;-94
2023/04/08 09:34:36;;;;;;;9.48;6.05;;;9.70;97.00;;;;;;4888274;29;20172;-93
2023/04/08 10:19:11;;;;;;;3.33;3.10;;;10.70;96.00;;;;;;4791191;30;20196;-74
2023/04/08 10:54:43;;;;;;;2.05;1.80;;;11.70;94.10;;;;;;5151729;23;20724;-74
2023/04/08 11:15:08;;;;;;;6.20;1.85;;;12.10;93.00;;;;;;4805770;29;20201;-73
2023/04/08 11:58:29;;;;;;;;;;;;;;;;;;;;;
2023/04/08 12:20:28;;;;;;;4.38;4.03;;;12.20;91.00;;;;;;5295811;23;20251;-92
2023/04/08 13:17:53;;;;;;;6.40;5.80;;;10.50;92.50;;;;;;4937090;23;20239;-95
2023/04/08 13:20:18;;;;;;;6.18;5.57;;;10.40;92.50;;;;;;4887127;29;20172;-95
2023/04/08 13:23:00;;;;;;;7.30;6.47;;;10.40;91.80;;;;;;4884453;29;20223;-95
2023/04/08 13:25:26;;;;;;;8.80;5.25;;;10.30;92.20;;;;;;4890775;29;20230;-95
2023/04/08 13:27:51;;;;;;;10.07;5.80;;;10.10;92.40;;;;;;4880955;29;20176;-95
2023/04/08 13:30:17;;;;;;;5.30;4.80;;;10.30;92.60;;;;;;4877524;29;20180;-95
2023/04/08 13:32:43;;;;;;;5.18;4.40;;;10.30;91.70;;;;;;4877865;29;20291;-94
2023/04/08 13:35:09;;;;;;;6.18;4.65;;;10.10;91.70;;;;;;4882358;29;20175;-94
2023/04/08 13:37:35;;;;;;;6.13;5.43;;;10.10;91.50;;;;;;4882631;29;20201;-94
2023/04/08 13:40:02;;;;;;;5.00;4.45;;;10.10;91.50;;;;;;4882253;29;20169;-94
2023/04/08 13:42:30;;;;;;;6.03;4.97;;;10.20;91.10;;;;;;4883849;29;20200;-94
2023/04/08 13:44:56;;;;;;;8.52;4.68;;;10.40;91.10;;;;;;4882923;29;20161;-94
2023/04/08 13:47:22;;;;;;;4.55;4.10;;;10.40;91.40;;;;;;4881947;29;20224;-94
2023/04/08 13:49:48;;;;;;;4.70;4.30;;;10.60;91.10;;;;;;4883212;29;20211;-93
2023/04/08 13:52:13;;;;;;;6.38;4.70;;;10.70;91.60;;;;;;4885771;29;20181;-95
2023/04/08 13:54:39;;;;;;;5.22;4.60;;;11.00;91.50;;;;;;4884034;29;20188;-94
2023/04/08 13:57:05;;;;;;;4.50;4.13;;;11.10;90.50;;;;;;4876692;29;20298;-94
2023/04/08 13:59:30;;;;;;;9.52;4.05;;;11.00;90.30;;;;;;4876698;29;20195;-94
2023/04/08 14:01:56;;;;;;;5.07;4.15;;;10.90;90.70;;;;;;4879005;29;20209;-94
2023/04/08 14:04:22;;;;;;;24.98;16.00;;;11.00;90.20;;;;;;4879562;29;20236;-94
2023/04/08 14:06:50;;;;;;;15.07;10.20;;;10.90;90.50;;;;;;4878853;29;20191;-95
2023/04/08 14:09:19;;;;;;;11.40;7.80;;;10.90;90.90;;;;;;4878477;29;20200;-95
2023/04/08 14:11:45;;;;;;;4.97;4.20;;;11.00;91.40;;;;;;4877417;29;20172;-94
2023/04/08 14:14:11;;;;;;;6.38;3.70;;;11.00;91.00;;;;;;4878674;29;20191;-94
2023/04/08 14:16:37;;;;;;;3.97;3.60;;;10.80;91.00;;;;;;4878977;29;20226;-94
2023/04/08 14:19:03;;;;;;;4.40;4.00;;;10.90;91.20;;;;;;4869942;29;20213;-95
2023/04/08 14:21:30;;;;;;;5.25;4.00;;;10.70;90.70;;;;;;4869099;29;20278;-95
2023/04/08 14:23:56;;;;;;;4.35;3.95;;;10.70;90.50;;;;;;4889606;29;20249;-94
2023/04/08 14:26:22;;;;;;;5.55;4.20;;;10.70;90.80;;;;;;4887353;29;20217;-95
2023/04/08 14:28:48;;;;;;;4.63;4.22;;;10.30;91.40;;;;;;4898672;29;20172;-94
2023/04/08 14:31:14;;;;;;;4.70;4.30;;;10.20;91.70;;;;;;4870711;29;20192;-94
2023/04/08 14:33:41;;;;;;;6.65;5.65;;;10.20;91.70;;;;;;4882121;29;20182;-94
2023/04/08 14:36:07;;;;;;;8.10;5.28;;;10.10;92.40;;;;;;4879743;29;20220;-94
2023/04/08 14:38:33;;;;;;;4.35;3.97;;;10.10;92.70;;;;;;4883189;29;20197;-94
2023/04/08 14:40:59;;;;;;;4.93;4.40;;;10.00;92.20;;;;;;4885403;29;20203;-94
2023/04/08 14:43:25;;;;;;;4.47;4.13;;;9.90;92.70;;;;;;4892093;29;20269;-94
2023/04/08 14:45:51;;;;;;;4.53;4.13;;;9.90;92.60;;;;;;4881187;29;20238;-94
2023/04/08 14:48:20;;;;;;;6.43;4.50;;;9.60;92.60;;;;;;4861576;29;20250;-95
2023/04/08 14:50:46;;;;;;;4.68;4.18;;;9.60;92.90;;;;;;4857430;29;20201;-94
2023/04/08 14:53:12;;;;;;;6.03;4.20;;;9.50;93.00;;;;;;4883856;29;20164;-94
2023/04/08 14:55:38;;;;;;;6.57;4.70;;;9.50;92.80;;;;;;4881011;29;20205;-94
2023/04/08 14:58:04;;;;;;;4.75;4.30;;;9.40;93.10;;;;;;4876364;29;20176;-94
2023/04/08 15:00:30;;;;;;;4.80;4.00;;;9.20;93.20;;;;;;4890204;29;20172;-95
2023/04/08 15:02:56;;;;;;;4.50;4.10;;;9.20;93.60;;;;;;4895426;29;20213;-95
2023/04/08 15:05:21;;;;;;;6.32;4.90;;;9.10;93.60;;;;;;4871948;29;20189;-93
2023/04/08 15:07:47;;;;;;;7.93;5.90;;;9.10;93.80;;;;;;4866767;29;20244;-93
2023/04/08 15:10:13;;;;;;;5.20;4.70;;;9.10;94.00;;;;;;4859916;29;20197;-96
2023/04/08 15:12:39;;;;;;;5.47;4.97;;;9.10;93.60;;;;;;4879238;29;20253;-94
2023/04/08 15:15:05;;;;;;;5.65;5.07;;;9.10;94.10;;;;;;4866922;29;20205;-93
2023/04/08 15:17:32;;;;;;;5.88;5.38;;;9.20;94.00;;;;;;4881741;29;20268;-94
2023/04/08 15:19:58;;;;;;;6.88;6.18;;;9.20;94.00;;;;;;4864011;29;20173;-94
2023/04/08 15:22:24;;;;;;;8.52;6.75;;;9.20;94.30;;;;;;4869849;29;20224;-94
2023/04/08 15:24:49;;;;;;;7.78;7.05;;;9.30;93.80;;;;;;4880508;29;20189;-94
2023/04/08 15:27:15;;;;;;;10.30;7.18;;;9.20;93.40;;;;;;4868407;29;20228;-94
2023/04/08 15:29:42;;;;;;;7.63;6.82;;;9.30;93.50;;;;;;4875216;29;20183;-94
2023/04/08 15:32:08;;;;;;;8.45;7.22;;;9.40;93.50;;;;;;4895908;29;20176;-93
2023/04/08 15:34:33;;;;;;;8.98;7.18;;;9.40;93.30;;;;;;4901997;23;20235;-73
2023/04/08 15:37:00;;;;;;;8.73;7.93;;;9.40;93.30;;;;;;4884035;29;20203;-74
2023/04/08 15:39:26;;;;;;;8.48;7.68;;;9.50;93.20;;;;;;4886662;29;20203;-79
2023/04/08 15:41:52;;;;;;;8.00;7.22;;;9.50;92.70;;;;;;4886014;29;20718;-74
2023/04/08 15:44:17;;;;;;;8.77;7.88;;;9.60;92.70;;;;;;4893435;29;20285;-74
2023/04/08 15:46:43;;;;;;;12.38;10.13;;;9.70;92.70;;;;;;4904006;29;20205;-73
2023/04/08 15:49:08;;;;;;;10.13;9.13;;;9.70;93.10;;;;;;4901563;29;20217;-73
2023/04/08 15:51:34;;;;;;;14.23;8.70;;;9.50;92.50;;;;;;4901535;29;20265;-73
2023/04/08 15:54:00;;;;;;;10.65;9.13;;;9.30;92.70;;;;;;4896591;29;20190;-73
2023/04/08 15:56:28;;;;;;;12.30;8.93;;;9.20;93.20;;;;;;4884202;29;20211;-73
2023/04/08 15:58:55;;;;;;;13.27;9.70;;;9.30;93.80;;;;;;4885473;29;20247;-73
2023/04/08 16:01:21;;;;;;;13.05;9.57;;;9.40;94.20;;;;;;4889193;29;20238;-74
2023/04/08 16:03:46;;;;;;;13.48;9.48;;;9.40;94.00;;;;;;4899220;29;20211;-73
2023/04/08 16:06:12;;;;;;;14.60;10.05;;;9.40;94.10;;;;;;4866509;29;20246;-75
2023/04/08 16:08:38;;;;;;;10.52;9.43;;;9.50;94.20;;;;;;4880559;29;20180;-73
2023/04/08 16:11:20;;;;;;;11.23;10.02;;;9.60;94.20;;;;;;4880377;29;20264;-73
2023/04/08 16:13:46;;;;;;;11.18;9.60;;;9.70;94.10;;;;;;4880045;29;20176;-73
2023/04/08 16:16:11;;;;;;;13.40;10.23;;;9.80;93.70;;;;;;4890135;29;20711;-74
2023/04/08 16:19:07;;;;;;;13.93;10.52;;;10.00;93.80;;;;;;4869022;29;20222;-76
2023/04/08 16:21:33;;;;;;;12.23;9.65;;;10.10;93.70;;;;;;4880031;29;20192;-73
2023/04/08 16:24:19;;;;;;;12.75;9.95;;;10.20;93.10;;;;;;4880215;29;20272;-73
2023/04/08 16:26:46;;;;;;;12.43;10.00;;;10.30;92.90;;;;;;4864257;29;20236;-73
2023/04/08 16:29:12;;;;;;;13.10;10.00;;;10.30;92.70;;;;;;4879695;29;20267;-74
2023/04/08 16:32:10;;;;;;;15.63;10.18;;;10.20;92.90;;;;;;4864573;29;20279;-73
2023/04/08 16:35:29;;;;;;;14.10;9.90;;;10.20;92.50;;;;;;4864202;29;20199;-73
2023/04/08 16:38:05;;;;;;;12.25;10.93;;;10.20;92.90;;;;;;4864606;29;20176;-74
2023/04/08 16:40:33;;;;;;;12.27;10.50;;;10.20;92.10;;;;;;4881373;29;20195;-73
2023/04/08 16:43:36;;;;;;;13.93;10.45;;;10.10;92.50;;;;;;4882570;29;20675;-73
2023/04/08 16:46:10;;;;;;;13.50;11.38;;;10.10;92.60;;;;;;4917299;29;20198;-73
2023/04/08 16:48:36;;;;;;;12.07;10.45;;;10.10;92.40;;;;;;4901274;29;20274;-74
2023/04/08 16:51:18;;;;;;;11.73;10.52;;;10.10;92.40;;;;;;4906286;29;20184;-74
2023/04/08 16:53:54;;;;;;;12.23;10.85;;;10.00;92.60;;;;;;4881077;29;20220;-73
2023/04/08 16:56:20;;;;;;;13.38;11.00;;;9.90;92.80;;;;;;4882610;29;20225;-73
2023/04/08 16:58:46;;;;;;;12.13;10.93;;;9.90;92.80;;;;;;4899258;29;20208;-73
2023/04/08 17:01:56;;;;;;;13.05;11.75;;;9.80;92.70;;;;;;4882420;29;20219;-73
2023/04/08 17:04:21;;;;;;;19.70;15.02;;;9.80;92.90;;;;;;4883340;29;20212;-73
2023/04/08 17:06:48;;;;;;;25.95;17.90;;;9.70;93.20;;;;;;4889665;29;20277;-74
2023/04/08 17:09:54;;;;;;;22.73;17.20;;;9.60;93.40;;;;;;4912796;29;20210;-74
2023/04/08 17:12:20;;;;;;;15.10;13.20;;;9.50;93.60;;;;;;4898132;29;20207;-73
2023/04/08 17:14:46;;;;;;;13.32;11.35;;;9.40;93.30;;;;;;4882575;29;20180;-73
2023/04/08 17:17:15;;;;;;;13.23;11.80;;;9.30;93.20;;;;;;4882076;29;20227;-73
2023/04/08 17:19:54;;;;;;;12.88;11.52;;;9.30;93.10;;;;;;4883319;29;20228;-74
2023/04/08 17:22:44;;;;;;;14.98;11.35;;;9.30;93.30;;;;;;4883085;29;20172;-74
2023/04/08 17:25:22;;;;;;;15.38;13.25;;;9.20;93.50;;;;;;4888255;29;20270;-74
2023/04/08 17:27:57;;;;;;;15.48;12.32;;;9.20;93.70;;;;;;4899748;29;20196;-74
2023/04/08 17:30:22;;;;;;;12.48;11.18;;;9.20;93.80;;;;;;4883070;29;20178;-75
2023/04/08 17:32:53;;;;;;;13.00;11.63;;;9.10;93.50;;;;;;4883050;29;20191;-74
2023/04/08 17:35:18;;;;;;;12.93;11.48;;;9.00;93.70;;;;;;4882470;29;20199;-74
2023/04/08 17:37:44;;;;;;;13.13;11.73;;;9.00;93.80;;;;;;4882919;29;20210;-78
2023/04/08 17:40:10;;;;;;;13.32;12.02;;;9.00;93.90;;;;;;4882588;29;20198;-74
2023/04/08 17:42:57;;;;;;;13.77;11.68;;;9.00;93.90;;;;;;4883006;29;20250;-80
2023/04/08 17:45:26;;;;;;;16.45;11.88;;;9.00;94.10;;;;;;4900018;29;20214;-74
2023/04/08 17:48:10;;;;;;;16.00;12.07;;;8.90;94.10;;;;;;4896314;29;20210;-74
2023/04/08 17:50:59;;;;;;;34.20;21.35;;;8.90;94.10;;;;;;4901168;29;20554;-74
2023/04/08 17:54:21;;;;;;;32.20;21.25;;;8.80;94.10;;;;;;4900865;29;20168;-74
2023/04/08 17:56:49;;;;;;;20.38;15.60;;;8.80;94.10;;;;;;4897030;29;20205;-74
2023/04/08 17:59:23;;;;;;;24.98;18.08;;;8.80;95.10;;;;;;4900699;29;20181;-74
2023/04/08 18:02:11;;;;;;;20.33;15.75;;;8.90;95.90;;;;;;4917478;29;20178;-75
2023/04/08 18:04:37;;;;;;;17.98;15.73;;;8.90;95.30;;;;;;4900571;29;20181;-74
2023/04/08 18:07:10;;;;;;;19.08;15.95;;;9.00;95.20;;;;;;4894628;29;20208;-73
2023/04/08 18:09:35;;;;;;;15.65;13.95;;;8.90;94.50;;;;;;4881832;29;20313;-74
2023/04/08 18:12:08;;;;;;;16.15;14.02;;;8.90;94.30;;;;;;4882599;29;20239;-74
2023/04/08 18:14:41;;;;;;;13.88;12.43;;;8.80;94.40;;;;;;4885973;29;20270;-74
2023/04/08 18:17:22;;;;;;;15.68;12.20;;;8.80;94.50;;;;;;4896629;29;20195;-75
2023/04/08 18:20:26;;;;;;;14.23;12.52;;;8.70;94.70;;;;;;4904678;29;20246;-74
2023/04/08 18:22:53;;;;;;;14.05;12.55;;;8.60;94.90;;;;;;4921260;29;20203;-74
2023/04/08 18:25:22;;;;;;;14.95;13.38;;;8.60;95.10;;;;;;4904173;29;20202;-73
2023/04/08 18:27:58;;;;;;;14.90;12.98;;;8.60;95.10;;;;;;4904141;29;20195;-74
2023/04/08 18:30:24;;;;;;;15.25;13.63;;;8.50;95.20;;;;;;4904170;29;20178;-75
2023/04/08 18:33:00;;;;;;;15.70;13.38;;;8.50;95.40;;;;;;4903884;29;20191;-75
2023/04/08 18:35:26;;;;;;;15.90;13.57;;;8.40;95.60;;;;;;4896833;29;20233;-73
2023/04/08 18:37:59;;;;;;;15.52;13.77;;;8.30;95.90;;;;;;4885347;29;20215;-75
2023/04/08 18:40:31;;;;;;;16.70;13.82;;;8.30;96.40;;;;;;4885737;29;20175;-74
2023/04/08 18:43:00;;;;;;;15.07;13.40;;;8.30;96.80;;;;;;4885387;29;20238;-75
2023/04/08 18:45:26;;;;;;;15.43;13.35;;;8.30;97.10;;;;;;4885354;29;20270;-74
2023/04/08 18:47:58;;;;;;;18.30;13.80;;;8.30;97.20;;;;;;4880579;29;20623;-74
2023/04/08 18:50:26;;;;;;;16.42;13.15;;;8.30;97.30;;;;;;4885100;29;20220;-75
2023/04/08 18:52:56;;;;;;;14.77;13.20;;;8.30;97.20;;;;;;4885327;29;20266;-73
2023/04/08 18:55:50;;;;;;;15.05;12.70;;;8.30;97.80;;;;;;4887355;29;20191;-73
2023/04/08 18:58:15;;;;;;;15.65;13.52;;;8.30;97.60;;;;;;4903836;29;20585;-74
2023/04/08 19:00:42;;;;;;;19.50;14.65;;;8.20;97.70;;;;;;4920538;29;20270;-73
2023/04/08 19:03:20;;;;;;;22.10;13.95;;;8.20;97.80;;;;;;4920569;29;20199;-73
2023/04/08 19:05:46;;;;;;;17.20;13.18;;;8.20;97.80;;;;;;4903820;29;20171;-73
2023/04/08 19:08:12;;;;;;;17.00;13.77;;;8.30;97.80;;;;;;4920509;29;20242;-74
2023/04/08 19:11:18;;;;;;;16.90;14.15;;;8.20;97.90;;;;;;4903512;29;20652;-73
2023/04/08 19:13:55;;;;;;;16.15;13.63;;;8.20;97.80;;;;;;4920475;29;20228;-73
2023/04/08 19:16:23;;;;;;;14.68;13.10;;;8.20;97.80;;;;;;4903616;29;20258;-73
2023/04/08 19:19:08;;;;;;;20.48;14.57;;;8.10;97.90;;;;;;4903425;29;20171;-73
2023/04/08 19:21:46;;;;;;;18.10;14.23;;;8.10;98.00;;;;;;4903041;29;20178;-73
2023/04/08 19:24:22;;;;;;;18.55;14.38;;;8.10;98.10;;;;;;4902829;29;20685;-73
2023/04/08 19:26:49;;;;;;;17.42;15.45;;;8.10;98.10;;;;;;4902992;29;20379;-73
2023/04/08 19:29:15;;;;;;;16.75;14.80;;;8.10;98.30;;;;;;4919751;29;20182;-73
2023/04/08 19:31:40;;;;;;;17.50;14.32;;;8.10;98.20;;;;;;4903236;29;20183;-73
2023/04/08 19:34:06;;;;;;;17.05;14.65;;;8.10;98.30;;;;;;4902857;29;20297;-73
2023/04/08 19:36:32;;;;;;;15.77;14.00;;;8.10;98.20;;;;;;4902650;29;20219;-73
2023/04/08 19:42:24;;;;;;;17.55;14.80;;;8.10;98.20;;;;;;4919845;29;20162;-73
2023/04/08 19:45:16;;;;;;;18.33;15.10;;;8.00;98.10;;;;;;4902995;29;20175;-73
2023/04/08 19:47:42;;;;;;;18.23;15.38;;;8.00;98.10;;;;;;4903615;29;20230;-73
2023/04/08 19:50:12;;;;;;;20.08;14.90;;;8.00;98.20;;;;;;4902500;29;20611;-73
2023/04/08 19:53:06;;;;;;;18.30;15.32;;;7.90;98.10;;;;;;4916331;29;20199;-73
2023/04/08 19:55:34;;;;;;;18.73;15.73;;;8.00;98.10;;;;;;4900662;29;20186;-73
2023/04/08 19:58:18;;;;;;;16.92;15.00;;;8.00;98.10;;;;;;4883936;29;20685;-73
2023/04/08 20:00:44;;;;;;;18.85;15.43;;;8.00;98.00;;;;;;4883631;29;20176;-73
2023/04/08 20:03:10;;;;;;;18.52;15.38;;;8.00;97.90;;;;;;4883555;29;20211;-73
2023/04/08 20:05:55;;;;;;;18.45;16.10;;;8.00;97.90;;;;;;4884594;29;20180;-73
2023/04/08 20:08:27;;;;;;;20.95;16.60;;;8.00;97.70;;;;;;4883795;29;20181;-73
2023/04/08 20:11:21;;;;;;;19.20;16.05;;;8.00;97.90;;;;;;4883507;29;20172;-73
2023/04/08 20:13:53;;;;;;;18.10;15.90;;;8.00;97.80;;;;;;4883311;29;20180;-73
2023/04/08 20:16:33;;;;;;;16.80;14.98;;;8.10;97.90;;;;;;4900166;29;20211;-73
2023/04/08 20:19:13;;;;;;;17.70;15.80;;;8.00;98.00;;;;;;4883494;29;20635;-73
2023/04/08 20:21:50;;;;;;;18.25;15.88;;;8.00;98.00;;;;;;4883270;29;20191;-73
2023/04/08 20:24:27;;;;;;;21.33;17.35;;;8.00;98.10;;;;;;4883461;29;20203;-73
2023/04/08 20:27:03;;;;;;;18.95;16.77;;;8.00;98.20;;;;;;4883580;29;20355;-73
2023/04/08 20:29:29;;;;;;;18.85;16.10;;;7.90;98.10;;;;;;4883213;29;20266;-73
2023/04/08 20:36:37;;;;;;;22.25;17.90;;;8.00;98.30;;;;;;4899300;29;20255;-73
2023/04/08 20:39:09;;;;;;;20.98;18.08;;;8.00;98.50;;;;;;4883107;29;20229;-73
2023/04/08 20:41:42;;;;;;;20.85;17.83;;;7.90;98.40;;;;;;4896327;29;20233;-73
2023/04/08 20:44:09;;;;;;;20.15;17.23;;;7.90;98.50;;;;;;4880969;29;20260;-73
2023/04/08 20:46:36;;;;;;;21.45;17.73;;;7.80;98.80;;;;;;4881038;29;20200;-73
2023/04/08 20:49:04;;;;;;;22.20;18.40;;;7.80;98.90;;;;;;4864925;29;20184;-73
2023/04/08 20:51:32;;;;;;;23.40;18.95;;;7.80;99.00;;;;;;4881607;29;20172;-73
2023/04/08 20:54:06;;;;;;;21.77;17.83;;;7.80;99.00;;;;;;4864421;29;20184;-73
2023/04/08 20:57:02;;;;;;;22.40;17.83;;;7.80;99.00;;;;;;4864471;29;20206;-73
2023/04/08 20:59:37;;;;;;;20.85;17.80;;;7.80;99.20;;;;;;4881004;29;20169;-73
2023/04/08 21:02:08;;;;;;;21.80;18.02;;;7.80;99.20;;;;;;4880622;29;20228;-73
2023/04/08 21:04:52;;;;;;;24.02;18.98;;;7.80;99.20;;;;;;4863834;29;20207;-73
2023/04/08 21:07:20;;;;;;;23.15;19.77;;;7.80;99.10;;;;;;4864409;29;20257;-73
2023/04/08 21:09:47;;;;;;;21.08;18.20;;;7.80;99.00;;;;;;4864359;29;20196;-73
2023/04/08 21:12:12;;;;;;;22.17;18.73;;;7.80;99.10;;;;;;4863778;29;20231;-73
2023/04/08 21:14:38;;;;;;;20.63;17.67;;;7.80;99.20;;;;;;4863642;29;20181;-73
2023/04/08 21:17:03;;;;;;;23.90;19.15;;;7.80;99.30;;;;;;4880241;29;20243;-73
2023/04/08 21:19:29;;;;;;;22.20;18.63;;;7.80;99.30;;;;;;4863554;29;20191;-73
2023/04/08 21:21:55;;;;;;;22.55;19.15;;;7.80;99.30;;;;;;4863859;29;20177;-73
2023/04/08 21:24:26;;;;;;;24.40;18.77;;;7.80;99.30;;;;;;4863608;29;20204;-73
2023/04/08 21:26:52;;;;;;;20.58;18.38;;;7.80;99.20;;;;;;4863577;29;20220;-73
2023/04/08 21:29:18;;;;;;;22.90;18.40;;;7.80;99.10;;;;;;4863830;29;20176;-73
2023/04/08 21:32:03;;;;;;;25.10;20.45;;;7.80;99.60;;;;;;4880133;29;20206;-73
2023/04/08 21:34:28;;;;;;;23.65;18.83;;;7.80;99.30;;;;;;4863805;29;20196;-73
2023/04/08 21:36:54;;;;;;;26.02;19.98;;;7.80;99.40;;;;;;4863381;29;20200;-73
2023/04/08 21:39:21;;;;;;;22.58;19.75;;;7.80;99.60;;;;;;4863772;29;20286;-73
2023/04/08 21:41:46;;;;;;;25.60;20.10;;;7.80;99.70;;;;;;4897352;29;20204;-73
2023/04/08 21:44:17;;;;;;;24.08;19.95;;;7.80;99.80;;;;;;4882696;29;20216;-73
2023/04/08 21:46:47;;;;;;;23.98;19.95;;;7.80;99.90;;;;;;4898102;29;20202;-73
2023/04/08 21:49:13;;;;;;;23.45;20.10;;;7.70;99.90;;;;;;4882215;29;20181;-73
2023/04/08 21:51:39;;;;;;;23.88;20.55;;;7.70;99.90;;;;;;4881752;29;20266;-73
2023/04/08 21:54:05;;;;;;;25.98;20.58;;;7.70;99.90;;;;;;4882802;29;20216;-73
2023/04/08 21:56:43;;;;;;;26.92;20.67;;;7.60;99.90;;;;;;4898446;29;20199;-73
2023/04/08 21:59:09;;;;;;;24.73;21.30;;;7.60;99.90;;;;;;4898731;29;20195;-73
2023/04/08 22:01:34;;;;;;;22.35;19.23;;;7.70;99.90;;;;;;4881988;29;20214;-73
2023/04/08 22:04:02;;;;;;;23.75;19.45;;;7.70;99.90;;;;;;4882090;29;20207;-73
2023/04/08 22:06:31;;;;;;;26.42;20.70;;;7.70;99.90;;;;;;4868761;29;20215;-73
2023/04/08 22:08:57;;;;;;;25.30;20.40;;;7.60;99.90;;;;;;4863084;29;20271;-73
2023/04/08 22:11:23;;;;;;;25.23;20.67;;;7.50;99.90;;;;;;4863354;29;20211;-73
2023/04/08 22:13:48;;;;;;;25.33;20.27;;;7.60;99.90;;;;;;4863189;29;20184;-73
2023/04/08 22:16:14;;;;;;;25.55;21.17;;;7.60;99.90;;;;;;4879514;29;20231;-72
2023/04/08 22:18:39;;;;;;;26.55;21.83;;;7.60;99.90;;;;;;4863307;29;20240;-72
2023/04/08 22:21:07;;;;;;;28.80;22.27;;;7.60;99.90;;;;;;4863179;29;20248;-72
2023/04/08 22:23:32;;;;;;;26.45;21.42;;;7.60;99.90;;;;;;4863384;29;20303;-72
2023/04/08 22:25:58;;;;;;;25.15;21.65;;;7.60;99.90;;;;;;4862752;29;20340;-72
2023/04/08 22:28:43;;;;;;;25.20;20.38;;;7.60;99.90;;;;;;4863723;29;20231;-72
2023/04/08 22:31:10;;;;;;;26.30;20.67;;;7.60;99.90;;;;;;4862892;29;20226;-73
2023/04/08 22:33:38;;;;;;;29.35;22.70;;;7.60;99.90;;;;;;4862914;29;20184;-73
2023/04/08 22:36:04;;;;;;;29.48;22.40;;;7.50;99.90;;;;;;4863457;29;20208;-73
2023/04/08 22:38:30;;;;;;;27.67;22.50;;;7.40;99.90;;;;;;4862790;29;20184;-73
2023/04/08 22:40:56;;;;;;;27.63;22.98;;;7.40;99.90;;;;;;4879473;29;20192;-73
2023/04/08 22:43:22;;;;;;;28.02;22.65;;;7.30;99.90;;;;;;4863031;29;20235;-73
2023/04/08 22:45:48;;;;;;;26.90;22.02;;;7.40;99.90;;;;;;4879183;29;20628;-73
2023/04/08 22:48:14;;;;;;;27.65;22.45;;;7.40;99.90;;;;;;4862976;29;20238;-73
2023/04/08 22:50:53;;;;;;;25.90;22.10;;;7.40;99.90;;;;;;4879905;29;20208;-73
2023/04/08 22:53:18;;;;;;;30.58;23.20;;;7.40;99.90;;;;;;4862625;29;20187;-73
2023/04/08 22:55:44;;;;;;;28.27;22.63;;;7.40;99.90;;;;;;4879179;29;20206;-73
2023/04/08 22:58:09;;;;;;;26.67;22.50;;;7.50;99.90;;;;;;4863496;29;20240;-73
2023/04/08 23:00:35;;;;;;;29.08;23.10;;;7.50;99.90;;;;;;4883029;29;20187;-73
2023/04/08 23:03:05;;;;;;;24.85;21.45;;;7.50;99.90;;;;;;4867142;29;20633;-73
2023/04/08 23:06:04;;;;;;;27.42;22.20;;;7.40;99.90;;;;;;4867153;29;20263;-73
2023/04/08 23:08:29;;;;;;;28.90;22.38;;;7.40;99.90;;;;;;4865982;29;20173;-73
2023/04/08 23:10:55;;;;;;;29.65;24.30;;;7.40;99.90;;;;;;4883154;29;20183;-73